Terminal Aerodrome Forecast
Issued by NWS Sterling, VA

Current Version | Previous Version | Graphics & Text | Print | Product List | Glossary On
Versions: 1 2 3 4 5 6 7 8 9 10 11 12 13 14 15 16 17 18 19 20
000
FTUS41 KLWX 271100
TAFDCA
TAF
KDCA 271136Z 2712/2812 VRB03KT P6SM SKC
     FM271600 17004KT P6SM FEW050
     FM280000 25005KT P6SM BKN050
     FM280500 VRB03KT P6SM SCT050
     FM280800 34009KT P6SM SCT090=

USA.gov is the U.S. government's official web portal to all federal, state and local government web resources and services.